createdAt,value
2023-02-05T00:01:39.585Z,0.80
2023-02-05T00:04:06.785Z,1.40
2023-02-05T00:06:34.054Z,0.60
2023-02-05T00:09:01.169Z,0.80
2023-02-05T00:11:28.334Z,0.90
2023-02-05T00:13:55.564Z,1.20
2023-02-05T00:16:24.383Z,1.43
2023-02-05T00:18:52.389Z,1.30
2023-02-05T00:21:21.025Z,1.10
2023-02-05T00:23:49.385Z,1.03
2023-02-05T00:26:16.740Z,1.60
2023-02-05T00:28:44.354Z,0.83
2023-02-05T00:31:17.892Z,1.17
2023-02-05T00:33:47.075Z,1.30
2023-02-05T00:36:15.353Z,0.97
2023-02-05T00:38:43.787Z,1.30
2023-02-05T00:41:11.559Z,1.10
2023-02-05T00:43:42.717Z,1.00
2023-02-05T00:46:12.186Z,1.10
2023-02-05T00:48:40.500Z,1.43
2023-02-05T00:51:09.778Z,1.67
2023-02-05T00:53:36.956Z,1.83
2023-02-05T00:56:04.725Z,1.30
2023-02-05T00:58:32.127Z,1.73
2023-02-05T01:00:59.376Z,1.17
2023-02-05T01:03:26.732Z,0.90
2023-02-05T01:05:53.951Z,0.83
2023-02-05T01:08:21.242Z,1.23
2023-02-05T01:10:50.042Z,1.10
2023-02-05T01:13:18.392Z,1.47
2023-02-05T01:15:46.541Z,0.90
2023-02-05T01:18:13.809Z,0.70
2023-02-05T01:20:42.432Z,0.77
2023-02-05T01:23:10.504Z,0.77
2023-02-05T01:25:38.152Z,0.80
2023-02-05T01:28:07.036Z,0.80
2023-02-05T01:30:35.478Z,0.60
2023-02-05T01:33:04.381Z,0.70
2023-02-05T01:35:31.977Z,0.90
2023-02-05T01:37:59.292Z,0.70
2023-02-05T01:40:26.510Z,0.73
2023-02-05T01:42:53.749Z,1.00
2023-02-05T01:45:23.914Z,0.80
2023-02-05T01:47:59.772Z,0.80
2023-02-05T01:50:50.647Z,0.60
2023-02-05T01:53:26.632Z,0.70
2023-02-05T01:56:24.967Z,0.90
2023-02-05T01:59:01.142Z,0.80
2023-02-05T02:01:29.273Z,0.60
2023-02-05T02:03:59.150Z,0.70
2023-02-05T02:06:26.692Z,0.60
2023-02-05T02:08:54.031Z,0.90
2023-02-05T02:11:24.329Z,0.90
2023-02-05T02:13:54.832Z,0.70
2023-02-05T02:16:23.506Z,0.70
2023-02-05T02:18:51.532Z,0.90
2023-02-05T02:21:40.017Z,0.70
2023-02-05T02:24:26.653Z,0.70
2023-02-05T02:27:21.689Z,0.77
2023-02-05T02:30:14.332Z,1.50
2023-02-05T02:32:54.549Z,1.07
2023-02-05T02:35:28.136Z,1.10
2023-02-05T02:38:10.403Z,0.77
2023-02-05T02:40:41.172Z,0.70
2023-02-05T02:43:46.035Z,0.73
2023-02-05T02:46:22.355Z,0.87
2023-02-05T02:48:52.723Z,0.70
2023-02-05T02:51:21.843Z,1.00
2023-02-05T02:53:54.519Z,1.03
2023-02-05T02:56:25.125Z,0.90
2023-02-05T02:59:24.178Z,0.60
2023-02-05T03:01:57.148Z,0.60
2023-02-05T03:04:47.744Z,0.70
2023-02-05T03:07:20.648Z,0.67
2023-02-05T03:10:14.752Z,1.10
2023-02-05T03:12:42.230Z,0.80
2023-02-05T03:15:11.138Z,0.70
2023-02-05T03:17:40.282Z,0.70
2023-02-05T03:20:25.526Z,0.80
2023-02-05T03:22:53.065Z,0.77
2023-02-05T03:25:22.542Z,1.07
2023-02-05T03:27:54.015Z,0.60
2023-02-05T03:30:29.957Z,0.60
2023-02-05T03:33:19.684Z,0.70
2023-02-05T03:36:06.963Z,0.67
2023-02-05T03:38:40.298Z,0.63
2023-02-05T03:41:45.451Z,0.63
2023-02-05T03:44:25.701Z,0.70
2023-02-05T03:47:13.725Z,0.60
2023-02-05T03:49:53.687Z,0.90
2023-02-05T03:52:32.679Z,0.80
2023-02-05T03:55:09.084Z,0.80
2023-02-05T03:57:58.762Z,0.70
2023-02-05T04:00:27.240Z,0.60
2023-02-05T04:02:55.716Z,0.50
2023-02-05T04:05:27.158Z,0.60
2023-02-05T04:07:55.988Z,0.80
2023-02-05T04:10:27.784Z,0.60
2023-02-05T04:12:56.617Z,0.63
2023-02-05T04:15:23.899Z,0.70
2023-02-05T04:17:58.098Z,0.70
2023-02-05T04:20:27.574Z,0.70
2023-02-05T04:22:54.896Z,0.70
2023-02-05T04:25:23.190Z,0.53
2023-02-05T04:27:52.165Z,1.17
2023-02-05T04:30:19.969Z,1.30
2023-02-05T04:32:48.755Z,0.53
2023-02-05T04:35:17.760Z,0.90
2023-02-05T04:37:46.483Z,0.60
2023-02-05T04:40:14.295Z,1.33
2023-02-05T04:42:41.390Z,0.60
2023-02-05T04:45:09.392Z,0.80
2023-02-05T04:47:36.673Z,0.90
2023-02-05T04:50:04.293Z,0.50
2023-02-05T04:52:31.493Z,0.73
2023-02-05T04:54:58.569Z,0.70
2023-02-05T04:57:25.769Z,0.80
2023-02-05T04:59:52.890Z,0.50
2023-02-05T05:02:20.128Z,0.60
2023-02-05T05:04:47.226Z,0.60
2023-02-05T05:07:14.504Z,0.60
2023-02-05T05:09:41.980Z,1.17
2023-02-05T05:12:09.195Z,0.70
2023-02-05T05:14:37.687Z,0.60
2023-02-05T05:17:04.848Z,0.63
2023-02-05T05:19:32.449Z,0.70
2023-02-05T05:22:00.039Z,0.53
2023-02-05T05:24:27.290Z,0.80
2023-02-05T05:26:54.514Z,0.50
2023-02-05T05:29:21.596Z,0.67
2023-02-05T05:31:51.616Z,0.80
2023-02-05T05:34:18.748Z,0.70
2023-02-05T05:36:47.342Z,0.77
2023-02-05T05:39:33.799Z,0.77
2023-02-05T05:42:23.802Z,1.00
2023-02-05T05:44:52.475Z,0.60
2023-02-05T05:47:20.032Z,0.90
2023-02-05T05:49:47.831Z,1.00
2023-02-05T05:52:14.933Z,0.80
2023-02-05T05:54:42.142Z,1.00
2023-02-05T05:57:09.524Z,0.60
2023-02-05T05:59:36.938Z,0.73
2023-02-05T06:02:04.548Z,0.77
2023-02-05T06:04:32.062Z,0.77
2023-02-05T06:07:00.089Z,0.60
2023-02-05T06:09:27.242Z,1.10
2023-02-05T06:11:54.555Z,0.50
2023-02-05T06:14:21.689Z,0.90
2023-02-05T06:16:48.901Z,0.90
2023-02-05T06:19:16.058Z,0.80
2023-02-05T06:21:43.452Z,1.20
2023-02-05T06:24:10.680Z,1.00
2023-02-05T06:26:37.927Z,0.80
2023-02-05T06:29:05.048Z,1.17
2023-02-05T06:31:32.550Z,0.70
2023-02-05T06:34:01.373Z,0.70
2023-02-05T06:36:28.634Z,1.23
2023-02-05T06:38:55.714Z,0.90
2023-02-05T06:41:23.009Z,0.70
2023-02-05T06:43:50.086Z,0.57
2023-02-05T06:46:17.437Z,0.60
2023-02-05T06:48:44.562Z,0.70
2023-02-05T06:51:13.500Z,0.80
2023-02-05T06:53:40.666Z,0.70
2023-02-05T06:56:07.948Z,0.68
2023-02-05T06:58:35.072Z,0.90
2023-02-05T07:01:03.130Z,1.10
2023-02-05T07:03:30.410Z,1.10
2023-02-05T07:06:03.668Z,1.07
2023-02-05T07:08:31.181Z,0.80
2023-02-05T07:10:58.576Z,0.80
2023-02-05T07:13:25.724Z,0.67
2023-02-05T07:15:52.871Z,0.70
2023-02-05T07:18:20.559Z,0.83
2023-02-05T07:20:48.323Z,0.70
2023-02-05T07:23:15.544Z,0.90
2023-02-05T07:25:42.839Z,0.70
2023-02-05T07:28:10.166Z,1.00
2023-02-05T07:30:37.818Z,0.73
2023-02-05T07:33:05.040Z,0.73
2023-02-05T07:35:33.790Z,0.70
2023-02-05T07:38:01.283Z,0.60
2023-02-05T07:40:28.465Z,0.70
2023-02-05T07:42:55.892Z,0.43
2023-02-05T07:45:23.078Z,0.80
2023-02-05T07:47:50.737Z,0.80
2023-02-05T07:50:18.227Z,1.20
2023-02-05T07:52:45.310Z,0.70
2023-02-05T07:55:12.462Z,0.97
2023-02-05T07:57:39.616Z,1.13
2023-02-05T08:00:07.668Z,0.90
2023-02-05T08:02:39.672Z,0.50
2023-02-05T08:05:07.705Z,0.73
2023-02-05T08:07:34.929Z,0.60
2023-02-05T08:10:02.083Z,0.90
2023-02-05T08:12:29.443Z,0.70
2023-02-05T08:14:56.717Z,0.60
2023-02-05T08:17:23.938Z,0.60
2023-02-05T08:19:51.584Z,1.00
2023-02-05T08:22:18.731Z,1.00
2023-02-05T08:24:45.899Z,1.40
2023-02-05T08:27:13.239Z,1.33
2023-02-05T08:29:40.432Z,0.80
2023-02-05T08:32:07.993Z,1.10
2023-02-05T08:34:35.142Z,2.10
2023-02-05T08:37:02.335Z,1.83
2023-02-05T08:39:29.440Z,1.20
2023-02-05T08:41:57.174Z,0.80
2023-02-05T08:44:24.870Z,0.90
2023-02-05T08:46:52.071Z,1.20
2023-02-05T08:49:19.301Z,1.50
2023-02-05T08:51:46.634Z,0.70
2023-02-05T08:54:15.323Z,1.00
2023-02-05T08:56:43.953Z,0.93
2023-02-05T08:59:12.612Z,0.70
2023-02-05T09:01:43.106Z,0.70
2023-02-05T09:04:15.715Z,0.90
2023-02-05T09:06:43.879Z,1.00
2023-02-05T09:09:12.901Z,0.60
2023-02-05T09:11:40.355Z,0.77
2023-02-05T09:14:08.254Z,0.70
2023-02-05T09:16:35.763Z,1.00
2023-02-05T09:19:03.168Z,0.80
2023-02-05T09:21:30.596Z,0.80
2023-02-05T09:23:58.256Z,0.57
2023-02-05T09:26:25.710Z,1.03
2023-02-05T09:28:53.069Z,1.00
2023-02-05T09:31:21.803Z,0.70
2023-02-05T09:33:49.099Z,1.23
2023-02-05T09:36:19.446Z,0.70
2023-02-05T09:38:47.466Z,0.90
2023-02-05T09:41:14.541Z,0.67
2023-02-05T09:43:54.082Z,0.80
2023-02-05T09:46:40.034Z,0.70
2023-02-05T09:49:27.821Z,0.83
2023-02-05T09:52:22.398Z,1.87
2023-02-05T09:54:58.301Z,0.63
2023-02-05T09:57:35.925Z,0.82
2023-02-05T10:00:12.434Z,0.77
2023-02-05T10:03:12.075Z,0.70
2023-02-05T10:06:24.021Z,0.70
2023-02-05T10:08:51.110Z,1.00
2023-02-05T10:11:41.214Z,0.97
2023-02-05T10:14:20.000Z,0.80
2023-02-05T10:17:05.551Z,0.68
2023-02-05T10:19:44.707Z,1.00
2023-02-05T10:23:07.150Z,0.70
2023-02-05T10:25:45.451Z,0.80
2023-02-05T10:28:40.851Z,0.77
2023-02-05T10:31:36.998Z,0.80
2023-02-05T10:34:22.553Z,0.70
2023-02-05T10:36:53.091Z,0.77
2023-02-05T10:39:25.692Z,0.98
2023-02-05T10:42:01.031Z,0.68
2023-02-05T10:44:43.829Z,0.80
2023-02-05T10:47:16.951Z,0.80
2023-02-05T10:50:03.269Z,0.70
2023-02-05T10:52:31.876Z,1.05
2023-02-05T10:55:00.235Z,1.08
2023-02-05T10:57:33.847Z,0.70
2023-02-05T11:00:05.639Z,1.13
2023-02-05T11:02:39.383Z,0.73
2023-02-05T11:05:18.628Z,0.90
2023-02-05T11:07:51.692Z,0.98
2023-02-05T11:10:34.121Z,0.95
2023-02-05T11:13:21.545Z,1.10
2023-02-05T11:15:59.629Z,0.90
2023-02-05T11:18:36.896Z,0.90
2023-02-05T11:21:08.800Z,0.70
2023-02-05T11:23:41.137Z,0.75
2023-02-05T11:26:17.789Z,1.13
2023-02-05T11:28:45.274Z,2.17
2023-02-05T11:31:26.549Z,1.10
2023-02-05T11:34:11.176Z,1.80
2023-02-05T11:36:48.637Z,1.15
2023-02-05T11:39:34.241Z,0.98
2023-02-05T11:42:10.355Z,0.90
2023-02-05T11:44:49.071Z,1.00
2023-02-05T11:47:26.609Z,0.80
2023-02-05T11:49:55.698Z,1.00
2023-02-05T11:52:30.170Z,1.88
2023-02-05T11:54:57.683Z,1.10
2023-02-05T11:57:24.941Z,1.02
2023-02-05T11:59:59.830Z,0.82
2023-02-05T12:02:29.687Z,0.90
2023-02-05T12:05:12.372Z,0.85
2023-02-05T12:07:54.670Z,1.75
2023-02-05T12:11:03.242Z,1.13
2023-02-05T12:14:05.506Z,1.00
2023-02-05T12:16:52.009Z,1.27
2023-02-05T12:19:23.402Z,1.10
2023-02-05T12:22:05.748Z,1.15
2023-02-05T12:25:00.284Z,0.82
2023-02-05T12:27:54.612Z,0.93
2023-02-05T12:30:31.340Z,0.70
2023-02-05T12:33:01.254Z,1.08
2023-02-05T12:35:50.185Z,0.95
2023-02-05T12:38:35.912Z,0.88
2023-02-05T12:41:28.141Z,0.88
2023-02-05T12:44:11.643Z,1.08
2023-02-05T12:46:41.581Z,0.98
2023-02-05T12:49:24.176Z,1.40
2023-02-05T12:52:07.011Z,1.17
2023-02-05T12:54:52.299Z,1.30
2023-02-05T12:57:26.713Z,2.00
2023-02-05T13:00:04.038Z,1.25
2023-02-05T13:02:43.853Z,1.25
2023-02-05T13:05:14.804Z,2.05
2023-02-05T13:08:04.998Z,1.00
2023-02-05T13:10:57.948Z,1.05
2023-02-05T13:14:01.101Z,1.30
2023-02-05T13:16:48.726Z,1.20
2023-02-05T13:19:29.552Z,1.40
2023-02-05T13:22:18.789Z,1.20
2023-02-05T13:25:27.360Z,0.82
2023-02-05T13:28:40.577Z,1.08
2023-02-05T13:31:31.314Z,1.08
2023-02-05T13:34:04.150Z,1.33
2023-02-05T13:36:40.468Z,1.13
2023-02-05T13:39:52.432Z,2.05
2023-02-05T13:42:25.844Z,6.03
2023-02-05T13:45:16.297Z,9.65
2023-02-05T13:48:13.663Z,6.10
2023-02-05T13:50:49.633Z,4.78
2023-02-05T13:53:55.742Z,2.90
2023-02-05T13:56:45.764Z,2.70
2023-02-05T13:59:27.386Z,2.00
2023-02-05T14:01:58.309Z,3.03
2023-02-05T14:04:40.470Z,2.58
2023-02-05T14:07:17.892Z,2.15
2023-02-05T14:09:56.664Z,1.65
2023-02-05T14:12:27.766Z,1.60
2023-02-05T14:15:17.369Z,1.85
2023-02-05T14:17:44.682Z,1.50
2023-02-05T14:20:39.783Z,1.98
2023-02-05T14:23:17.142Z,1.40
2023-02-05T14:26:05.637Z,1.60
2023-02-05T14:28:43.306Z,1.10
2023-02-05T14:31:47.070Z,1.15
2023-02-05T14:34:40.640Z,1.38
2023-02-05T14:37:43.227Z,2.67
2023-02-05T14:40:21.694Z,1.30
2023-02-05T14:42:51.954Z,1.42
2023-02-05T14:45:23.350Z,1.42
2023-02-05T14:47:51.052Z,1.38
2023-02-05T14:50:28.952Z,1.52
2023-02-05T14:53:02.372Z,0.98
2023-02-05T14:55:43.515Z,1.50
2023-02-05T14:58:44.483Z,1.00
2023-02-05T15:01:42.860Z,1.25
2023-02-05T15:04:25.353Z,1.00
2023-02-05T15:06:54.031Z,0.98
2023-02-05T15:09:30.250Z,1.50
2023-02-05T15:12:28.680Z,1.70
2023-02-05T15:14:59.592Z,1.85
2023-02-05T15:17:30.025Z,1.90
2023-02-05T15:20:04.059Z,1.38
2023-02-05T15:22:41.301Z,1.20
2023-02-05T15:25:25.901Z,1.42
2023-02-05T15:27:58.013Z,1.30
2023-02-05T15:30:29.221Z,1.20
2023-02-05T15:33:08.414Z,1.67
2023-02-05T15:35:37.741Z,1.08
2023-02-05T15:38:29.407Z,1.70
2023-02-05T15:40:57.822Z,1.73
2023-02-05T15:43:26.930Z,2.15
2023-02-05T15:46:03.748Z,1.58
2023-02-05T15:48:34.159Z,2.15
2023-02-05T15:51:42.596Z,2.42
2023-02-05T15:54:17.968Z,2.90
2023-02-05T15:56:51.087Z,2.33
2023-02-05T15:59:29.071Z,2.20
2023-02-05T16:02:40.085Z,2.90
2023-02-05T16:05:23.338Z,2.40
2023-02-05T16:07:59.053Z,1.70
2023-02-05T16:10:29.446Z,2.00
2023-02-05T16:13:13.214Z,2.13
2023-02-05T16:15:43.715Z,1.70
2023-02-05T16:18:40.703Z,2.20
2023-02-05T16:21:18.237Z,1.92
2023-02-05T16:23:49.626Z,1.90
2023-02-05T16:26:22.708Z,2.10
2023-02-05T16:29:02.159Z,2.00
2023-02-05T16:31:30.992Z,3.50
2023-02-05T16:34:16.538Z,2.38
2023-02-05T16:36:47.275Z,2.30
2023-02-05T16:39:23.548Z,2.33
2023-02-05T16:42:05.013Z,2.30
2023-02-05T16:44:40.357Z,2.30
2023-02-05T16:47:19.564Z,1.88
2023-02-05T16:49:48.287Z,1.67
2023-02-05T16:52:36.031Z,4.18
2023-02-05T16:55:27.749Z,8.00
2023-02-05T16:58:02.631Z,8.25
2023-02-05T17:00:30.595Z,5.28
2023-02-05T17:03:07.688Z,5.75
2023-02-05T17:05:37.114Z,2.55
2023-02-05T17:08:06.958Z,3.15
2023-02-05T17:10:52.229Z,3.70
2023-02-05T17:13:40.839Z,2.25
2023-02-05T17:16:23.476Z,2.47
2023-02-05T17:18:56.284Z,15.18
2023-02-05T17:21:27.441Z,4.50
2023-02-05T17:23:57.232Z,2.47
2023-02-05T17:26:26.229Z,7.63
2023-02-05T17:28:56.737Z,2.75
2023-02-05T17:31:26.558Z,2.33
2023-02-05T17:33:55.059Z,2.92
2023-02-05T17:36:22.294Z,2.15
2023-02-05T17:38:50.344Z,5.20
2023-02-05T17:41:47.178Z,3.30
2023-02-05T17:44:16.795Z,3.42
2023-02-05T17:46:44.783Z,2.30
2023-02-05T17:49:12.275Z,2.13
2023-02-05T17:51:42.702Z,1.75
2023-02-05T17:54:15.840Z,2.10
2023-02-05T17:56:45.612Z,2.10
2023-02-05T17:59:16.112Z,1.23
2023-02-05T18:01:43.530Z,1.38
2023-02-05T18:04:12.032Z,1.15
2023-02-05T18:06:41.710Z,1.25
2023-02-05T18:09:09.655Z,1.33
2023-02-05T18:11:37.247Z,1.20
2023-02-05T18:14:05.043Z,1.63
2023-02-05T18:16:32.408Z,1.50
2023-02-05T18:18:59.792Z,1.40
2023-02-05T18:21:27.002Z,0.80
2023-02-05T18:23:54.325Z,1.20
2023-02-05T18:26:22.138Z,1.52
2023-02-05T18:28:50.092Z,1.30
2023-02-05T18:31:17.610Z,1.17
2023-02-05T18:33:45.086Z,1.52
2023-02-05T18:36:14.078Z,1.77
2023-02-05T18:38:45.903Z,1.30
2023-02-05T18:41:16.626Z,1.08
2023-02-05T18:43:44.480Z,1.48
2023-02-05T18:46:16.958Z,1.70
2023-02-05T18:48:49.321Z,1.05
2023-02-05T18:51:20.171Z,1.13
2023-02-05T18:53:47.779Z,1.77
2023-02-05T18:56:26.776Z,1.15
2023-02-05T18:59:01.083Z,1.80
2023-02-05T19:01:30.995Z,1.10
2023-02-05T19:04:04.130Z,1.10
2023-02-05T19:06:31.677Z,1.38
2023-02-05T19:09:00.671Z,1.15
2023-02-05T19:11:30.484Z,1.02
2023-02-05T19:14:03.445Z,1.38
2023-02-05T19:16:32.928Z,2.20
2023-02-05T19:19:00.198Z,1.17
2023-02-05T19:21:32.131Z,1.20
2023-02-05T19:24:05.626Z,1.58
2023-02-05T19:26:34.574Z,1.15
2023-02-05T19:29:05.235Z,6.75
2023-02-05T19:31:34.295Z,1.80
2023-02-05T19:34:02.082Z,1.65
2023-02-05T19:36:30.140Z,1.10
2023-02-05T19:38:59.500Z,1.48
2023-02-05T19:41:27.342Z,1.17
2023-02-05T19:43:57.397Z,1.20
2023-02-05T19:46:31.514Z,1.55
2023-02-05T19:49:15.446Z,1.80
2023-02-05T19:51:59.543Z,1.30
2023-02-05T19:54:26.988Z,1.35
2023-02-05T19:56:54.290Z,1.60
2023-02-05T19:59:21.522Z,1.52
2023-02-05T20:01:49.893Z,2.05
2023-02-05T20:04:24.876Z,1.35
2023-02-05T20:06:58.212Z,1.55
2023-02-05T20:09:27.074Z,1.65
2023-02-05T20:11:55.474Z,1.98
2023-02-05T20:14:23.238Z,3.08
2023-02-05T20:16:52.025Z,1.27
2023-02-05T20:19:20.035Z,1.17
2023-02-05T20:21:47.636Z,1.73
2023-02-05T20:24:16.488Z,1.10
2023-02-05T20:26:44.806Z,1.35
2023-02-05T20:29:30.785Z,1.92
2023-02-05T20:32:00.770Z,2.25
2023-02-05T20:34:30.942Z,1.50
2023-02-05T20:37:02.351Z,1.08
2023-02-05T20:39:30.701Z,1.20
2023-02-05T20:41:59.310Z,1.10
2023-02-05T20:44:31.795Z,1.30
2023-02-05T20:46:59.090Z,1.00
2023-02-05T20:49:26.628Z,1.48
2023-02-05T20:51:54.348Z,1.00
2023-02-05T20:54:22.623Z,1.20
2023-02-05T20:56:59.122Z,1.00
2023-02-05T20:59:32.733Z,1.23
2023-02-05T21:02:00.638Z,1.17
2023-02-05T21:04:27.824Z,1.80
2023-02-05T21:06:55.129Z,1.35
2023-02-05T21:09:22.646Z,0.90
2023-02-05T21:11:51.212Z,1.42
2023-02-05T21:14:18.407Z,2.83
2023-02-05T21:16:46.962Z,1.10
2023-02-05T21:19:14.108Z,1.17
2023-02-05T21:21:41.528Z,1.65
2023-02-05T21:24:13.297Z,1.08
2023-02-05T21:26:50.926Z,1.13
2023-02-05T21:29:20.657Z,1.90
2023-02-05T21:31:51.385Z,1.58
2023-02-05T21:34:25.112Z,1.42
2023-02-05T21:36:54.245Z,1.55
2023-02-05T21:39:22.500Z,1.42
2023-02-05T21:41:54.272Z,0.98
2023-02-05T21:44:21.896Z,1.45
2023-02-05T21:46:49.164Z,1.02
2023-02-05T21:49:16.432Z,1.23
2023-02-05T21:51:43.638Z,1.75
2023-02-05T21:54:11.516Z,1.80
2023-02-05T21:56:41.863Z,1.52
2023-02-05T21:59:11.472Z,1.55
2023-02-05T22:01:39.155Z,1.40
2023-02-05T22:04:13.561Z,1.40
2023-02-05T22:06:40.854Z,1.50
2023-02-05T22:09:10.355Z,1.73
2023-02-05T22:11:39.520Z,2.08
2023-02-05T22:14:07.218Z,3.58
2023-02-05T22:16:36.318Z,2.00
2023-02-05T22:19:05.082Z,1.80
2023-02-05T22:21:37.996Z,1.85
2023-02-05T22:24:06.901Z,1.73
2023-02-05T22:26:39.289Z,1.95
2023-02-05T22:29:08.096Z,1.67
2023-02-05T22:31:35.710Z,2.25
2023-02-05T22:34:03.611Z,3.38
2023-02-05T22:36:32.270Z,2.42
2023-02-05T22:38:59.639Z,1.73
2023-02-05T22:41:33.428Z,2.65
2023-02-05T22:44:02.002Z,2.50
2023-02-05T22:46:30.949Z,1.90
2023-02-05T22:49:00.450Z,2.92
2023-02-05T22:51:39.468Z,3.22
2023-02-05T22:54:08.133Z,3.15
2023-02-05T22:56:35.321Z,2.13
2023-02-05T22:59:03.521Z,2.20
2023-02-05T23:01:35.714Z,2.80
2023-02-05T23:04:05.217Z,3.63
2023-02-05T23:06:59.379Z,3.25
2023-02-05T23:09:26.558Z,2.88
2023-02-05T23:11:55.952Z,2.95
2023-02-05T23:14:23.248Z,1.73
2023-02-05T23:16:50.495Z,1.92
2023-02-05T23:19:20.729Z,2.05
2023-02-05T23:21:48.477Z,1.83
2023-02-05T23:24:16.357Z,1.75
2023-02-05T23:26:46.089Z,2.25
2023-02-05T23:29:15.416Z,2.50
2023-02-05T23:31:42.865Z,2.58
2023-02-05T23:34:10.163Z,1.83
2023-02-05T23:36:37.719Z,2.65
2023-02-05T23:39:05.699Z,2.42
2023-02-05T23:41:36.063Z,2.70
2023-02-05T23:44:13.217Z,3.20
2023-02-05T23:46:42.568Z,2.67
2023-02-05T23:49:10.614Z,1.95
2023-02-05T23:51:38.392Z,2.20
2023-02-05T23:54:06.997Z,2.47
2023-02-05T23:56:34.450Z,1.30
2023-02-05T23:59:01.792Z,2.13
